Time;durP1;ratioP1;P1;durP2;ratioP2;P2;SDS_P1;SDS_P2;PMS_P1;PMS_P2;Temp;Humidity;BMP_temperature;BMP_pressure;BME280_temperature;BME280_humidity;BME280_pressure;Samples;Min_cycle;Max_cycle;Signal;HPM_P1;HPM_P2
2022/08/08 00:02:16;;;;;;;11.90;11.10;;;15.20;99.90;;;;;;4990971;28;20211;-73
2022/08/08 00:05:01;;;;;;;10.93;10.43;;;15.20;99.90;;;;;;4992627;28;20181;-72
2022/08/08 00:07:30;;;;;;;10.50;10.00;;;15.20;99.90;;;;;;4991420;28;20207;-72
2022/08/08 00:10:13;;;;;;;11.27;10.60;;;15.30;99.90;;;;;;4992155;28;20207;-72
2022/08/08 00:13:01;;;;;;;9.07;8.60;;;15.20;99.90;;;;;;4991283;28;20242;-72
2022/08/08 00:15:32;;;;;;;7.47;6.97;;;15.20;99.90;;;;;;4992538;28;20680;-73
2022/08/08 00:18:29;;;;;;;6.40;6.10;;;15.10;99.90;;;;;;4991658;28;20191;-72
2022/08/08 00:21:00;;;;;;;6.93;6.47;;;15.20;99.90;;;;;;4983064;28;20553;-73
2022/08/08 00:23:47;;;;;;;6.03;5.83;;;15.10;99.90;;;;;;4992431;28;20692;-72
2022/08/08 00:26:22;;;;;;;7.17;6.73;;;15.10;99.90;;;;;;4991986;28;20678;-72
2022/08/08 00:28:52;;;;;;;7.53;7.13;;;15.00;99.90;;;;;;4990832;28;20778;-72
2022/08/08 00:31:28;;;;;;;7.07;6.77;;;14.90;99.90;;;;;;4992259;28;20185;-72
2022/08/08 00:37:11;;;;;;;6.37;5.87;;;14.80;99.90;;;;;;4991488;28;20192;-72
2022/08/08 00:39:49;;;;;;;6.07;5.77;;;14.80;99.90;;;;;;4990445;28;20250;-72
2022/08/08 00:42:31;;;;;;;6.47;6.07;;;14.80;99.90;;;;;;4991859;28;20211;-73
2022/08/08 00:45:09;;;;;;;5.57;5.23;;;14.60;99.90;;;;;;4991879;28;20184;-73
2022/08/08 00:48:12;;;;;;;9.43;8.77;;;14.60;99.90;;;;;;4990641;28;20186;-72
2022/08/08 00:51:12;;;;;;;14.93;14.13;;;14.60;99.90;;;;;;4990752;28;20184;-72
2022/08/08 00:54:15;;;;;;;10.30;9.23;;;14.60;99.90;;;;;;4990311;28;20218;-72
2022/08/08 00:56:59;;;;;;;15.87;15.00;;;14.60;99.90;;;;;;4991857;28;20188;-73
2022/08/08 00:59:44;;;;;;;13.27;12.67;;;14.60;99.90;;;;;;4991721;28;20320;-73
2022/08/08 01:02:50;;;;;;;8.90;8.40;;;14.60;99.90;;;;;;4990647;28;20216;-74
2022/08/08 01:05:42;;;;;;;6.00;5.50;;;14.60;99.90;;;;;;4991863;28;20180;-72
2022/08/08 01:08:42;;;;;;;8.27;7.87;;;14.60;99.90;;;;;;4969511;28;20188;-72
2022/08/08 01:11:51;;;;;;;7.63;7.13;;;14.50;99.90;;;;;;4990494;28;20190;-72
2022/08/08 01:14:42;;;;;;;7.53;7.23;;;14.50;99.90;;;;;;4991403;28;20231;-72
2022/08/08 01:17:17;;;;;;;8.03;7.73;;;14.40;99.90;;;;;;4990790;28;20657;-72
2022/08/08 01:20:05;;;;;;;7.97;7.67;;;14.30;99.90;;;;;;4990245;28;20203;-73
2022/08/08 01:23:13;;;;;;;6.10;5.80;;;14.30;99.90;;;;;;4990030;28;20230;-72
2022/08/08 01:26:13;;;;;;;5.27;4.47;;;14.20;99.90;;;;;;4991637;28;20184;-73
2022/08/08 01:28:58;;;;;;;4.67;4.47;;;14.30;99.90;;;;;;4975010;28;20223;-72
2022/08/08 01:31:43;;;;;;;4.53;4.33;;;14.30;99.90;;;;;;4990444;28;20177;-72
2022/08/08 01:34:42;;;;;;;3.93;3.83;;;14.30;99.90;;;;;;4991083;28;20187;-72
2022/08/08 01:37:20;;;;;;;5.30;4.17;;;14.40;99.90;;;;;;4990608;28;20688;-71
2022/08/08 01:40:22;;;;;;;4.23;4.03;;;14.30;99.90;;;;;;4986287;28;20203;-74
2022/08/08 01:43:04;;;;;;;4.60;4.30;;;14.30;99.90;;;;;;4971693;28;20254;-74
2022/08/08 01:46:04;;;;;;;4.50;4.30;;;14.30;99.90;;;;;;4971983;28;20177;-75
2022/08/08 01:48:51;;;;;;;4.40;4.30;;;14.20;99.90;;;;;;4970536;28;20197;-75
2022/08/08 01:51:46;;;;;;;5.63;5.23;;;14.10;99.90;;;;;;4986851;28;20192;-75
2022/08/08 01:54:26;;;;;;;4.93;4.73;;;14.10;99.90;;;;;;4989831;28;20181;-75
2022/08/08 01:57:30;;;;;;;4.50;4.30;;;14.10;99.90;;;;;;4990313;28;20568;-75
2022/08/08 02:00:17;;;;;;;7.40;4.60;;;14.00;99.90;;;;;;4991426;28;20210;-75
2022/08/08 02:03:22;;;;;;;4.37;4.17;;;13.90;99.90;;;;;;4993295;28;20219;-74
2022/08/08 02:06:05;;;;;;;4.43;4.23;;;13.80;99.90;;;;;;4972917;28;20200;-74
2022/08/08 02:08:58;;;;;;;42.10;40.10;;;13.70;99.90;;;;;;4992238;28;20692;-73
2022/08/08 02:11:38;;;;;;;13.73;13.03;;;13.70;99.90;;;;;;4994270;28;20188;-73
2022/08/08 02:14:12;;;;;;;13.17;12.53;;;13.80;99.90;;;;;;4993183;28;20191;-73
2022/08/08 02:16:57;;;;;;;58.67;55.70;;;13.60;99.90;;;;;;4994067;28;20289;-74
2022/08/08 02:19:45;;;;;;;104.67;99.40;;;13.50;99.90;;;;;;4992560;28;20359;-73
2022/08/08 02:22:30;;;;;;;95.87;91.17;;;13.40;99.90;;;;;;4992697;28;20276;-73
2022/08/08 02:25:06;;;;;;;73.53;70.03;;;13.40;99.90;;;;;;4993912;28;20181;-73
2022/08/08 02:27:58;;;;;;;62.93;59.93;;;13.30;99.90;;;;;;4993093;28;20184;-73
2022/08/08 02:31:01;;;;;;;40.93;38.83;;;13.30;99.90;;;;;;4992832;28;20212;-73
2022/08/08 02:34:24;;;;;;;52.23;49.73;;;13.20;99.90;;;;;;4992356;28;20681;-73
2022/08/08 02:36:53;;;;;;;30.13;28.73;;;13.20;99.90;;;;;;4960032;28;20259;-73
2022/08/08 02:39:53;;;;;;;34.50;32.83;;;13.10;99.90;;;;;;4994138;28;20715;-72
2022/08/08 02:43:05;;;;;;;28.33;26.73;;;13.10;99.90;;;;;;4993657;28;20220;-73
2022/08/08 02:45:37;;;;;;;29.53;28.13;;;13.10;99.90;;;;;;4993501;28;20637;-73
2022/08/08 02:48:28;;;;;;;29.03;27.67;;;13.10;99.90;;;;;;4991372;28;20181;-73
2022/08/08 02:51:16;;;;;;;25.37;24.17;;;13.00;99.90;;;;;;4992451;28;20267;-73
2022/08/08 02:54:11;;;;;;;21.37;20.37;;;13.00;99.90;;;;;;4993463;28;20190;-74
2022/08/08 02:56:59;;;;;;;26.97;25.67;;;13.00;99.90;;;;;;4992045;28;20180;-74
2022/08/08 03:00:21;;;;;;;10.10;9.60;;;12.90;99.90;;;;;;4993581;28;20263;-73
2022/08/08 03:03:21;;;;;;;7.13;6.53;;;12.90;99.90;;;;;;4993317;28;20208;-73
2022/08/08 03:06:27;;;;;;;7.60;7.20;;;13.00;99.90;;;;;;4992780;28;20176;-73
2022/08/08 03:09:27;;;;;;;6.77;5.97;;;13.00;99.90;;;;;;4992410;28;20196;-74
2022/08/08 03:12:31;;;;;;;7.27;6.97;;;13.00;99.90;;;;;;4993024;28;20196;-74
2022/08/08 03:15:09;;;;;;;7.83;7.53;;;13.00;99.90;;;;;;4993234;28;20562;-74
2022/08/08 03:17:44;;;;;;;10.23;9.73;;;13.00;99.90;;;;;;4992115;28;20558;-74
2022/08/08 03:20:12;;;;;;;10.83;10.33;;;12.90;99.90;;;;;;4991935;28;20964;-74
2022/08/08 03:22:52;;;;;;;8.93;8.53;;;12.90;99.90;;;;;;4993267;28;20218;-73
2022/08/08 03:25:21;;;;;;;11.33;10.83;;;12.80;99.90;;;;;;4992851;28;20250;-73
2022/08/08 03:27:58;;;;;;;9.13;8.73;;;12.70;99.90;;;;;;4991887;28;20535;-73
2022/08/08 03:30:25;;;;;;;7.30;6.70;;;12.70;99.90;;;;;;4992859;28;20212;-75
2022/08/08 03:35:39;;;;;;;8.57;8.10;;;12.70;99.90;;;;;;4992103;28;20184;-75
2022/08/08 03:38:06;;;;;;;8.13;7.73;;;12.70;99.90;;;;;;4991571;28;20181;-74
2022/08/08 03:40:33;;;;;;;8.73;8.33;;;12.70;99.90;;;;;;4992781;28;20688;-75
2022/08/08 03:42:59;;;;;;;9.07;8.67;;;12.70;99.90;;;;;;4992368;28;20212;-75
2022/08/08 03:45:27;;;;;;;7.17;6.87;;;12.70;99.90;;;;;;4992531;28;20185;-74
2022/08/08 03:48:01;;;;;;;8.53;8.13;;;12.70;99.90;;;;;;4991901;28;20185;-74
2022/08/08 03:50:29;;;;;;;7.57;7.27;;;12.60;99.90;;;;;;4991987;28;20609;-75
2022/08/08 03:53:00;;;;;;;8.60;8.20;;;12.60;99.90;;;;;;4991201;28;20184;-74
2022/08/08 03:55:26;;;;;;;10.03;9.53;;;12.60;99.90;;;;;;4992269;28;20218;-74
2022/08/08 03:57:54;;;;;;;8.23;7.83;;;12.60;99.90;;;;;;4991424;28;20189;-74
2022/08/08 04:00:23;;;;;;;8.60;8.20;;;12.40;99.90;;;;;;4992138;28;20208;-74
2022/08/08 04:03:02;;;;;;;22.03;20.83;;;12.30;99.90;;;;;;4992240;28;20239;-74
2022/08/08 04:05:30;;;;;;;93.67;88.80;;;12.20;99.90;;;;;;4992021;28;20655;-75
2022/08/08 04:07:58;;;;;;;80.87;76.70;;;12.20;99.90;;;;;;4991398;28;20180;-75
2022/08/08 04:10:25;;;;;;;56.17;53.23;;;12.10;99.90;;;;;;4991110;28;20575;-74
2022/08/08 04:12:51;;;;;;;34.40;32.27;;;12.10;99.90;;;;;;4992139;28;20182;-74
2022/08/08 04:15:17;;;;;;;70.33;65.93;;;12.20;99.90;;;;;;4990143;28;20192;-74
2022/08/08 04:17:42;;;;;;;123.20;116.90;;;12.20;99.90;;;;;;4987818;28;20649;-75
2022/08/08 04:20:09;;;;;;;102.63;97.60;;;12.30;99.90;;;;;;4991795;28;20208;-75
2022/08/08 04:22:35;;;;;;;78.43;74.43;;;12.20;99.90;;;;;;4991442;28;20711;-78
2022/08/08 04:25:02;;;;;;;130.40;123.93;;;12.20;99.90;;;;;;4991784;28;20184;-75
2022/08/08 04:27:28;;;;;;;113.77;108.07;;;12.20;99.90;;;;;;4971871;28;20289;-75
2022/08/08 04:29:55;;;;;;;128.63;122.30;;;12.30;99.90;;;;;;4972783;28;20247;-75
2022/08/08 04:32:20;;;;;;;112.80;107.17;;;12.40;99.90;;;;;;4968940;28;20278;-75
2022/08/08 04:34:47;;;;;;;62.83;59.67;;;12.40;99.90;;;;;;4981869;28;20188;-75
2022/08/08 04:37:12;;;;;;;15.57;14.57;;;12.50;99.90;;;;;;4990350;28;20183;-75
2022/08/08 04:39:39;;;;;;;15.00;14.10;;;12.50;99.90;;;;;;4990499;28;20215;-75
2022/08/08 04:42:06;;;;;;;7.17;6.83;;;12.60;99.90;;;;;;4990248;28;20179;-75
2022/08/08 04:44:32;;;;;;;17.60;16.43;;;12.70;99.90;;;;;;4991118;28;20262;-75
2022/08/08 04:46:58;;;;;;;40.30;38.20;;;12.80;99.90;;;;;;4989411;28;20220;-75
2022/08/08 04:49:24;;;;;;;55.60;52.80;;;12.80;99.90;;;;;;4991329;28;20653;-74
2022/08/08 04:51:50;;;;;;;66.33;62.87;;;12.90;99.90;;;;;;4991486;28;20214;-75
2022/08/08 04:54:16;;;;;;;84.17;80.00;;;12.90;99.90;;;;;;4988900;28;20184;-77
2022/08/08 04:56:42;;;;;;;76.60;72.67;;;13.00;99.90;;;;;;4987612;28;20682;-76
2022/08/08 04:59:08;;;;;;;71.50;68.03;;;13.00;99.90;;;;;;5006985;28;20215;-74
2022/08/08 05:01:34;;;;;;;64.87;61.67;;;13.10;99.90;;;;;;5011287;28;20187;-76
2022/08/08 05:04:01;;;;;;;77.67;73.90;;;13.20;99.90;;;;;;5004174;28;20219;-75
2022/08/08 05:06:27;;;;;;;94.00;89.47;;;13.30;99.90;;;;;;4990148;28;20173;-74
2022/08/08 05:08:53;;;;;;;52.23;49.73;;;13.40;99.90;;;;;;4988774;28;20270;-75
2022/08/08 05:11:20;;;;;;;47.10;44.60;;;13.60;99.90;;;;;;4990471;28;20715;-76
2022/08/08 05:13:46;;;;;;;9.97;9.17;;;13.80;99.90;;;;;;4989297;28;20185;-75
2022/08/08 05:16:12;;;;;;;5.60;5.10;;;13.90;99.90;;;;;;4990879;28;20187;-74
2022/08/08 05:18:38;;;;;;;8.83;8.33;;;14.10;99.90;;;;;;4990483;28;20211;-75
2022/08/08 05:21:07;;;;;;;71.50;67.93;;;14.20;99.90;;;;;;4989836;28;20556;-74
2022/08/08 05:23:33;;;;;;;94.07;89.07;;;14.40;99.90;;;;;;4989819;28;20692;-74
2022/08/08 05:26:00;;;;;;;87.93;83.53;;;14.60;99.90;;;;;;4990819;28;20184;-75
2022/08/08 05:28:26;;;;;;;57.57;54.67;;;14.80;99.90;;;;;;4988627;28;20220;-75
2022/08/08 05:30:52;;;;;;;31.43;29.93;;;14.90;99.90;;;;;;4990938;28;20210;-74
2022/08/08 05:33:18;;;;;;;13.77;13.07;;;15.10;99.90;;;;;;4991063;28;20188;-74
2022/08/08 05:35:46;;;;;;;12.60;11.90;;;15.40;99.90;;;;;;4993472;28;20173;-76
2022/08/08 05:38:17;;;;;;;13.60;12.93;;;15.50;99.90;;;;;;4992884;28;20184;-76
2022/08/08 05:40:48;;;;;;;13.23;12.60;;;15.70;99.90;;;;;;4993832;28;20184;-76
2022/08/08 05:43:29;;;;;;;63.23;60.07;;;15.90;99.90;;;;;;4994872;28;20211;-76
2022/08/08 05:45:57;;;;;;;43.90;41.60;;;16.30;99.90;;;;;;4994609;28;20800;-75
2022/08/08 05:48:23;;;;;;;7.57;7.17;;;16.70;99.90;;;;;;4993830;28;20200;-76
2022/08/08 05:50:49;;;;;;;9.77;9.27;;;16.90;99.90;;;;;;4993650;28;20184;-77
2022/08/08 05:53:24;;;;;;;7.60;7.00;;;17.20;99.90;;;;;;4994719;28;20215;-75
2022/08/08 05:55:55;;;;;;;8.10;5.70;;;17.60;99.90;;;;;;4994420;28;20184;-76
2022/08/08 05:58:30;;;;;;;5.10;4.77;;;17.90;99.90;;;;;;4992278;28;20188;-75
2022/08/08 06:01:01;;;;;;;6.72;6.38;;;18.20;99.90;;;;;;4994655;28;20668;-75
2022/08/08 06:03:29;;;;;;;6.28;5.93;;;18.60;99.90;;;;;;4991198;28;20215;-76
2022/08/08 06:06:05;;;;;;;7.43;6.93;;;19.00;99.90;;;;;;4986325;28;20192;-75
2022/08/08 06:08:35;;;;;;;14.05;13.20;;;19.50;99.90;;;;;;4973806;28;20201;-76
2022/08/08 06:11:02;;;;;;;25.25;23.65;;;19.80;99.90;;;;;;4974523;28;20213;-76
2022/08/08 06:13:30;;;;;;;35.38;33.40;;;20.20;99.90;;;;;;4974762;28;20185;-76
2022/08/08 06:15:56;;;;;;;15.57;14.75;;;20.60;99.90;;;;;;4993848;28;20679;-81
2022/08/08 06:18:24;;;;;;;7.82;7.43;;;21.00;99.90;;;;;;4997345;28;20289;-81
2022/08/08 06:20:57;;;;;;;14.63;13.50;;;21.50;99.90;;;;;;4997937;28;20192;-82
2022/08/08 06:23:26;;;;;;;14.50;13.65;;;21.70;99.90;;;;;;4998734;28;20223;-82
2022/08/08 06:26:05;;;;;;;16.92;16.13;;;22.00;99.90;;;;;;4997623;28;20184;-82
2022/08/08 06:28:50;;;;;;;15.73;14.93;;;22.20;99.90;;;;;;4996892;28;20208;-80
2022/08/08 06:31:20;;;;;;;20.08;18.65;;;22.60;99.10;;;;;;4997457;28;20553;-83
2022/08/08 06:34:06;;;;;;;12.85;12.13;;;23.00;97.30;;;;;;4997199;28;20270;-81
2022/08/08 06:36:40;;;;;;;10.40;9.90;;;23.20;96.30;;;;;;4997429;28;20188;-81
2022/08/08 06:39:10;;;;;;;5.15;4.68;;;23.50;95.90;;;;;;4983483;28;20219;-82
2022/08/08 06:41:58;;;;;;;5.03;4.53;;;23.90;95.30;;;;;;4977292;28;20191;-82
2022/08/08 06:44:25;;;;;;;5.65;5.15;;;24.30;93.80;;;;;;4977545;28;20271;-82
2022/08/08 06:46:51;;;;;;;11.10;10.40;;;24.40;93.10;;;;;;5006631;28;20196;-79
2022/08/08 06:49:19;;;;;;;8.70;8.20;;;24.70;92.40;;;;;;5006246;28;20266;-82
2022/08/08 06:51:45;;;;;;;15.00;14.18;;;25.10;91.00;;;;;;5007002;28;20246;-82
2022/08/08 06:54:12;;;;;;;21.45;20.27;;;25.20;90.70;;;;;;5016901;28;20195;-80
2022/08/08 06:56:38;;;;;;;16.20;15.40;;;25.30;89.40;;;;;;5005802;28;20203;-81
2022/08/08 06:59:05;;;;;;;22.13;21.02;;;25.50;87.90;;;;;;4992209;28;20220;-81
2022/08/08 07:01:43;;;;;;;20.80;19.80;;;25.50;88.30;;;;;;4989941;28;20203;-81
2022/08/08 07:04:15;;;;;;;19.42;18.35;;;25.40;86.90;;;;;;4996707;28;20212;-81
2022/08/08 07:06:45;;;;;;;27.05;25.70;;;25.20;87.80;;;;;;4994972;28;20645;-80
2022/08/08 07:09:24;;;;;;;22.70;21.60;;;25.60;87.40;;;;;;4994156;28;20755;-81
2022/08/08 07:11:51;;;;;;;17.70;16.85;;;26.20;87.70;;;;;;4995947;28;20184;-80
2022/08/08 07:14:25;;;;;;;19.90;18.98;;;26.70;85.80;;;;;;4996270;28;20180;-81
2022/08/08 07:17:05;;;;;;;17.42;16.42;;;27.20;84.80;;;;;;4994680;28;20184;-81
2022/08/08 07:19:44;;;;;;;19.90;18.70;;;27.10;80.40;;;;;;4994707;28;20211;-82
2022/08/08 07:22:13;;;;;;;18.95;17.92;;;27.20;81.70;;;;;;5012387;28;20252;-79
2022/08/08 07:24:41;;;;;;;15.13;14.25;;;27.30;80.30;;;;;;5016908;28;20223;-79
2022/08/08 07:27:11;;;;;;;11.73;11.15;;;27.60;80.80;;;;;;5013255;28;20292;-81
2022/08/08 07:29:37;;;;;;;14.93;14.05;;;27.90;78.80;;;;;;5004541;28;20315;-82
2022/08/08 07:32:05;;;;;;;9.15;8.23;;;27.70;78.70;;;;;;5038545;23;20231;-80
2022/08/08 07:34:33;;;;;;;10.60;10.00;;;27.80;77.30;;;;;;5041575;28;20194;-82
2022/08/08 07:37:02;;;;;;;10.25;9.75;;;28.10;77.00;;;;;;5022553;28;20174;-79
2022/08/08 07:39:31;;;;;;;8.95;8.55;;;28.20;77.40;;;;;;5034869;28;20181;-79
2022/08/08 07:41:58;;;;;;;9.15;8.70;;;28.40;77.00;;;;;;5042011;28;20209;-81
2022/08/08 07:44:24;;;;;;;8.93;7.75;;;28.30;75.60;;;;;;5041164;28;20218;-80
2022/08/08 07:46:51;;;;;;;6.78;6.38;;;28.50;75.60;;;;;;5029967;28;20171;-81
2022/08/08 07:49:17;;;;;;;6.13;5.72;;;28.80;76.30;;;;;;5024523;28;20194;-80
2022/08/08 07:51:43;;;;;;;13.77;12.88;;;29.10;74.10;;;;;;5041076;28;20191;-80
2022/08/08 07:54:24;;;;;;;29.38;27.90;;;29.20;71.60;;;;;;5024161;28;20183;-79
2022/08/08 07:57:33;;;;;;;26.17;24.77;;;29.50;71.90;;;;;;5022309;28;20183;-80
2022/08/08 08:00:12;;;;;;;32.25;30.58;;;29.60;69.90;;;;;;5038922;28;20275;-79
2022/08/08 08:03:05;;;;;;;33.38;31.73;;;29.20;70.50;;;;;;5020784;28;20702;-80
2022/08/08 08:05:36;;;;;;;25.73;24.52;;;29.30;71.50;;;;;;5038193;28;20250;-80
2022/08/08 08:08:09;;;;;;;21.58;20.48;;;29.50;70.90;;;;;;5043693;28;20242;-79
2022/08/08 08:10:37;;;;;;;18.67;17.63;;;29.80;69.50;;;;;;5038588;28;20187;-79
2022/08/08 08:13:19;;;;;;;20.45;19.50;;;29.70;68.70;;;;;;5051465;28;20541;-82
2022/08/08 08:15:53;;;;;;;27.25;25.95;;;29.20;70.20;;;;;;5025679;28;20186;-81
2022/08/08 08:18:22;;;;;;;20.70;19.70;;;29.40;71.50;;;;;;5034770;28;20179;-80
2022/08/08 08:20:51;;;;;;;20.35;19.25;;;29.60;69.40;;;;;;5033154;28;20237;-81
2022/08/08 08:23:17;;;;;;;19.00;18.10;;;29.60;67.90;;;;;;5015114;28;20203;-79
2022/08/08 08:25:42;;;;;;;17.80;16.92;;;29.30;68.40;;;;;;5018259;28;20513;-81
2022/08/08 08:28:08;;;;;;;30.15;28.67;;;28.90;71.90;;;;;;5017012;28;20183;-81
2022/08/08 08:30:34;;;;;;;23.50;22.33;;;29.50;71.20;;;;;;5019995;28;20289;-81
2022/08/08 08:33:00;;;;;;;18.42;17.17;;;29.70;68.20;;;;;;5021387;28;20183;-80
2022/08/08 08:35:26;;;;;;;15.13;14.43;;;29.90;67.10;;;;;;5038937;28;20282;-80
2022/08/08 08:37:52;;;;;;;12.65;11.68;;;29.90;66.90;;;;;;5021357;28;20596;-80
2022/08/08 08:40:18;;;;;;;13.73;13.00;;;29.90;66.60;;;;;;5029311;28;20208;-79
2022/08/08 08:42:46;;;;;;;14.70;13.73;;;29.90;66.20;;;;;;5013914;28;20211;-81
2022/08/08 08:45:12;;;;;;;12.50;11.77;;;30.10;65.60;;;;;;5001666;28;20205;-81
2022/08/08 08:47:41;;;;;;;9.73;9.23;;;30.30;65.60;;;;;;5036388;28;20198;-81
2022/08/08 08:50:07;;;;;;;13.38;12.68;;;30.40;63.90;;;;;;5059774;28;20229;-79
2022/08/08 08:52:34;;;;;;;11.93;11.32;;;29.90;65.80;;;;;;5057959;28;20186;-81
2022/08/08 08:55:01;;;;;;;9.25;8.73;;;30.20;64.70;;;;;;5060802;28;20189;-81
2022/08/08 08:57:27;;;;;;;10.82;10.23;;;30.30;63.40;;;;;;5043635;28;20213;-81
2022/08/08 08:59:55;;;;;;;12.15;11.20;;;30.50;63.10;;;;;;5040110;28;20642;-81
2022/08/08 09:02:23;;;;;;;5.85;5.55;;;31.00;62.60;;;;;;5040902;28;20290;-80
2022/08/08 09:04:54;;;;;;;9.40;8.98;;;31.10;60.40;;;;;;5026801;28;20567;-81
2022/08/08 09:07:23;;;;;;;9.90;9.32;;;30.30;61.60;;;;;;5020845;28;20318;-80
2022/08/08 09:09:52;;;;;;;13.85;12.93;;;30.30;63.90;;;;;;5045270;28;20602;-80
2022/08/08 09:12:22;;;;;;;11.50;10.90;;;30.70;61.50;;;;;;5036268;28;20195;-78
2022/08/08 09:14:52;;;;;;;6.72;6.38;;;30.90;61.60;;;;;;5035597;28;20186;-79
2022/08/08 09:17:19;;;;;;;9.10;8.27;;;31.30;62.00;;;;;;5028934;28;20247;-81
2022/08/08 09:19:48;;;;;;;18.17;17.20;;;31.90;57.00;;;;;;5026887;28;20171;-82
2022/08/08 09:22:14;;;;;;;14.23;13.45;;;31.40;55.60;;;;;;5042685;28;20207;-81
2022/08/08 09:24:42;;;;;;;34.33;32.60;;;31.50;56.80;;;;;;5043946;28;20671;-81
2022/08/08 09:27:08;;;;;;;117.78;112.18;;;31.20;55.10;;;;;;5025548;28;20245;-80
2022/08/08 09:29:57;;;;;;;107.28;102.25;;;31.20;53.00;;;;;;5027283;28;20214;-81
2022/08/08 09:32:36;;;;;;;71.40;68.07;;;30.90;53.10;;;;;;5026210;28;20588;-82
2022/08/08 09:35:06;;;;;;;38.42;36.58;;;30.40;53.10;;;;;;5025927;28;20198;-81
2022/08/08 09:37:48;;;;;;;11.98;11.38;;;30.30;53.00;;;;;;5046574;28;20183;-81
2022/08/08 09:40:16;;;;;;;48.58;46.33;;;30.20;54.30;;;;;;5030096;28;20205;-82
2022/08/08 09:42:55;;;;;;;92.32;88.00;;;30.90;52.10;;;;;;5045227;28;20211;-81
2022/08/08 09:45:37;;;;;;;129.95;123.75;;;30.80;51.70;;;;;;5028548;28;20187;-81
2022/08/08 09:48:05;;;;;;;140.88;134.25;;;31.20;51.30;;;;;;5044595;28;20179;-80
2022/08/08 09:50:32;;;;;;;194.98;185.43;;;31.50;51.70;;;;;;5044249;28;20201;-81
2022/08/08 09:53:02;;;;;;;214.48;204.18;;;31.50;51.00;;;;;;5045499;28;20179;-80
2022/08/08 09:55:29;;;;;;;251.23;239.10;;;30.80;50.70;;;;;;5051884;28;20179;-81
2022/08/08 09:58:15;;;;;;;223.32;212.60;;;30.50;49.40;;;;;;5027097;28;20285;-80
2022/08/08 10:00:41;;;;;;;220.73;210.15;;;30.50;49.50;;;;;;5017498;28;20773;-82
2022/08/08 10:03:12;;;;;;;225.07;214.32;;;30.40;50.40;;;;;;5019373;28;20308;-83
2022/08/08 10:05:38;;;;;;;210.32;200.20;;;30.70;50.90;;;;;;5022825;28;20179;-82
2022/08/08 10:08:04;;;;;;;150.13;142.98;;;30.30;50.10;;;;;;5023545;28;20186;-83
2022/08/08 10:10:38;;;;;;;86.32;82.20;;;30.50;50.80;;;;;;5027648;28;20199;-81
2022/08/08 10:13:21;;;;;;;88.40;84.28;;;30.50;51.50;;;;;;5026030;28;20187;-80
2022/08/08 10:15:51;;;;;;;60.08;57.00;;;30.40;51.00;;;;;;5032262;28;20187;-80
2022/08/08 10:18:32;;;;;;;217.70;207.18;;;31.10;50.60;;;;;;5023953;28;20179;-71
2022/08/08 10:21:11;;;;;;;251.88;239.45;;;32.00;49.10;;;;;;5033170;28;20194;-71
2022/08/08 10:23:48;;;;;;;212.48;202.30;;;31.80;49.00;;;;;;5032678;28;20679;-71
2022/08/08 10:26:23;;;;;;;221.77;211.20;;;32.30;47.90;;;;;;5031988;28;20187;-68
2022/08/08 10:29:02;;;;;;;236.38;224.90;;;32.20;47.80;;;;;;5028848;28;20167;-82
2022/08/08 10:34:17;;;;;;;134.98;128.23;;;33.80;44.50;;;;;;5048214;28;20253;-82
2022/08/08 10:36:44;;;;;;;147.93;140.93;;;33.20;43.90;;;;;;5028546;28;20179;-81
2022/08/08 10:39:17;;;;;;;155.25;147.82;;;32.50;45.50;;;;;;5027316;28;20237;-81
2022/08/08 10:41:52;;;;;;;150.05;142.88;;;32.50;45.60;;;;;;5036414;28;20213;-81
2022/08/08 10:44:27;;;;;;;157.32;149.65;;;32.70;44.90;;;;;;5046328;28;20201;-81
2022/08/08 10:46:52;;;;;;;125.28;119.25;;;33.20;45.20;;;;;;5045682;28;20551;-81
2022/08/08 10:49:23;;;;;;;119.40;113.85;;;33.40;43.30;;;;;;5032450;28;20262;-81
2022/08/08 10:51:49;;;;;;;99.57;94.88;;;33.60;43.20;;;;;;5037296;28;20213;-82
2022/08/08 10:54:19;;;;;;;88.35;84.25;;;34.50;41.90;;;;;;5055738;28;20290;-81
2022/08/08 10:56:54;;;;;;;90.63;86.30;;;34.40;41.50;;;;;;5045317;28;20225;-82
2022/08/08 10:59:20;;;;;;;89.53;85.35;;;33.10;42.50;;;;;;5028679;28;20193;-82
2022/08/08 11:01:46;;;;;;;99.25;94.57;;;32.20;43.50;;;;;;5027692;28;20222;-82
2022/08/08 11:04:12;;;;;;;121.80;115.90;;;32.20;43.60;;;;;;5027343;28;20242;-83
2022/08/08 11:06:38;;;;;;;101.97;97.20;;;32.20;44.60;;;;;;5041268;28;20202;-81
2022/08/08 11:09:06;;;;;;;100.30;95.43;;;32.60;43.00;;;;;;5023823;28;20179;-82
2022/08/08 11:11:37;;;;;;;84.60;80.65;;;32.60;43.70;;;;;;5023388;28;20205;-82
2022/08/08 11:14:05;;;;;;;97.07;92.47;;;32.90;42.20;;;;;;5023395;28;20190;-82
2022/08/08 11:16:33;;;;;;;83.07;79.15;;;32.50;43.10;;;;;;5027075;28;20175;-81
2022/08/08 11:19:03;;;;;;;83.20;79.28;;;32.90;42.00;;;;;;5028242;28;20205;-82
2022/08/08 11:21:39;;;;;;;93.53;89.20;;;32.60;42.00;;;;;;5045372;28;20203;-81
2022/08/08 11:24:08;;;;;;;93.97;89.55;;;32.80;42.60;;;;;;5025336;28;20210;-83
2022/08/08 11:26:37;;;;;;;96.90;92.28;;;32.70;44.00;;;;;;5024626;28;20183;-82
2022/08/08 11:29:05;;;;;;;102.07;97.30;;;33.10;43.00;;;;;;5024243;28;20175;-82
2022/08/08 11:31:39;;;;;;;81.47;77.45;;;34.10;42.90;;;;;;5030775;28;20215;-82
2022/08/08 11:34:06;;;;;;;53.00;50.42;;;35.40;40.00;;;;;;5036998;28;20181;-83
2022/08/08 11:36:35;;;;;;;52.83;50.30;;;35.70;38.10;;;;;;5024572;28;20231;-83
2022/08/08 11:39:05;;;;;;;63.70;60.72;;;34.30;39.20;;;;;;5043656;28;20172;-83
2022/08/08 11:41:31;;;;;;;42.38;40.17;;;33.70;40.20;;;;;;5027965;28;20199;-82
2022/08/08 11:43:56;;;;;;;46.78;44.47;;;34.10;38.60;;;;;;5025887;28;20249;-83
2022/08/08 11:46:24;;;;;;;15.70;15.02;;;34.50;38.50;;;;;;5042230;28;20179;-82
2022/08/08 11:48:51;;;;;;;13.48;12.90;;;34.50;36.80;;;;;;5024004;28;20207;-81
2022/08/08 11:51:20;;;;;;;7.38;7.07;;;34.80;36.80;;;;;;5027189;28;20206;-81
2022/08/08 11:53:48;;;;;;;15.98;15.07;;;34.80;37.30;;;;;;5027601;28;20226;-83
2022/08/08 11:56:21;;;;;;;23.85;22.75;;;35.50;38.40;;;;;;5028017;28;20187;-82
2022/08/08 11:58:47;;;;;;;24.70;23.58;;;35.10;38.40;;;;;;5034705;28;20178;-81
2022/08/08 12:01:14;;;;;;;21.38;20.35;;;34.80;38.20;;;;;;5035631;28;20206;-82
2022/08/08 12:03:48;;;;;;;17.08;16.23;;;34.90;37.80;;;;;;5030881;28;20183;-82
2022/08/08 12:06:17;;;;;;;12.30;11.75;;;34.70;38.30;;;;;;5027938;28;20216;-81
2022/08/08 12:08:43;;;;;;;17.40;16.15;;;35.30;37.00;;;;;;5027459;28;20167;-82
2022/08/08 12:11:18;;;;;;;7.60;7.15;;;35.30;37.50;;;;;;5028238;28;20206;-82
2022/08/08 12:13:48;;;;;;;3.00;2.90;;;36.00;36.90;;;;;;5048323;28;20272;-82
2022/08/08 12:16:19;;;;;;;4.18;4.05;;;36.70;36.70;;;;;;5033269;28;20187;-82
2022/08/08 12:18:47;;;;;;;6.28;6.05;;;37.60;34.60;;;;;;5034032;28;20187;-81
2022/08/08 12:21:25;;;;;;;3.88;3.47;;;37.70;34.70;;;;;;5029438;28;20245;-81
2022/08/08 12:24:08;;;;;;;5.72;5.43;;;37.00;34.90;;;;;;5028588;28;20193;-82
2022/08/08 12:26:44;;;;;;;5.03;4.72;;;36.50;35.50;;;;;;5027727;28;20202;-82
2022/08/08 12:29:24;;;;;;;6.03;5.47;;;37.00;35.00;;;;;;5026091;28;20178;-82
2022/08/08 12:32:08;;;;;;;3.53;3.33;;;36.30;35.20;;;;;;5025459;28;20218;-81
2022/08/08 12:35:05;;;;;;;3.78;3.58;;;35.30;36.60;;;;;;5025637;28;20218;-81
2022/08/08 12:37:34;;;;;;;3.05;2.80;;;35.70;36.10;;;;;;5040352;28;20190;-82
2022/08/08 12:40:15;;;;;;;4.68;4.53;;;36.30;35.70;;;;;;5028839;28;20231;-82
2022/08/08 12:42:47;;;;;;;5.03;4.82;;;37.40;35.50;;;;;;5026588;28;20182;-83
2022/08/08 12:45:13;;;;;;;6.85;6.55;;;38.80;33.30;;;;;;5025615;28;20187;-82
2022/08/08 12:47:40;;;;;;;6.18;5.88;;;38.50;32.80;;;;;;5042904;28;20186;-83
2022/08/08 12:50:07;;;;;;;11.73;10.88;;;37.70;33.30;;;;;;5027598;28;20193;-82
2022/08/08 12:52:33;;;;;;;12.10;11.55;;;36.60;33.10;;;;;;5025227;28;20206;-80
2022/08/08 12:55:10;;;;;;;7.97;7.63;;;36.40;33.90;;;;;;5025572;28;20179;-81
2022/08/08 12:57:36;;;;;;;7.70;7.05;;;36.80;34.20;;;;;;5042037;28;20186;-80
2022/08/08 13:00:04;;;;;;;8.35;7.85;;;37.20;34.20;;;;;;5025708;28;20564;-81
2022/08/08 13:02:37;;;;;;;6.95;6.68;;;37.30;34.40;;;;;;5029493;28;20213;-81
2022/08/08 13:05:16;;;;;;;9.27;8.88;;;37.70;33.50;;;;;;5025370;28;20190;-80
2022/08/08 13:07:42;;;;;;;8.02;7.40;;;37.00;33.40;;;;;;5023577;28;20208;-82
2022/08/08 13:10:10;;;;;;;8.02;7.68;;;37.10;33.10;;;;;;5051075;28;20239;-80
2022/08/08 13:12:39;;;;;;;7.22;6.85;;;37.10;33.70;;;;;;5030079;28;20219;-82
2022/08/08 13:15:08;;;;;;;8.98;8.60;;;37.90;33.60;;;;;;5021161;28;20179;-82
2022/08/08 13:17:34;;;;;;;9.13;8.68;;;38.30;33.70;;;;;;5022230;28;20656;-81
2022/08/08 13:20:01;;;;;;;10.32;9.80;;;38.30;33.40;;;;;;5029634;28;20190;-80